Time;durP1;ratioP1;P1;durP2;ratioP2;P2;SDS_P1;SDS_P2;PMS_P1;PMS_P2;Temp;Humidity;BMP_temperature;BMP_pressure;BME280_temperature;BME280_humidity;BME280_pressure;Samples;Min_cycle;Max_cycle;Signal;HPM_P1;HPM_P2
2023/05/14 00:00:43;;;;;;;15.38;7.75;;;11.20;99.90;;;;;;5060991;28;20039;-71
2023/05/14 00:03:09;;;;;;;12.35;6.97;;;11.20;99.90;;;;;;5064286;28;20045;-71
2023/05/14 00:05:34;;;;;;;12.75;6.88;;;11.20;99.90;;;;;;5058373;28;20056;-72
2023/05/14 00:08:00;;;;;;;13.40;7.05;;;11.10;99.90;;;;;;5059230;28;20036;-72
2023/05/14 00:10:26;;;;;;;13.13;6.95;;;11.10;99.90;;;;;;5061910;28;20699;-72
2023/05/14 00:12:52;;;;;;;12.88;6.88;;;11.10;99.90;;;;;;5052794;28;20135;-72
2023/05/14 00:15:18;;;;;;;13.98;6.50;;;11.10;99.90;;;;;;5058166;28;20103;-72
2023/05/14 00:17:43;;;;;;;12.25;6.55;;;11.10;99.90;;;;;;5060953;28;20028;-72
2023/05/14 00:20:11;;;;;;;12.98;6.93;;;11.10;99.90;;;;;;5060480;28;20037;-72
2023/05/14 00:22:37;;;;;;;13.98;7.57;;;11.10;99.90;;;;;;5067960;28;20477;-71
2023/05/14 00:25:03;;;;;;;12.30;7.03;;;11.10;99.90;;;;;;5060680;28;20024;-71
2023/05/14 00:27:29;;;;;;;11.85;6.90;;;11.10;99.90;;;;;;5057547;28;20063;-71
2023/05/14 00:29:54;;;;;;;15.32;7.28;;;11.10;99.90;;;;;;5063521;28;20528;-71
2023/05/14 00:32:20;;;;;;;14.88;7.28;;;11.10;99.90;;;;;;5063787;28;20033;-71
2023/05/14 00:34:46;;;;;;;13.65;8.18;;;11.10;99.90;;;;;;5066730;28;20032;-71
2023/05/14 00:37:11;;;;;;;13.73;7.28;;;11.10;99.90;;;;;;5062350;28;20036;-72
2023/05/14 00:39:37;;;;;;;12.90;7.80;;;11.10;99.90;;;;;;5062844;28;20095;-71
2023/05/14 00:42:03;;;;;;;14.55;8.27;;;11.10;99.90;;;;;;5066478;28;20037;-72
2023/05/14 00:44:28;;;;;;;14.13;7.93;;;11.10;99.90;;;;;;5066526;28;20071;-72
2023/05/14 00:46:54;;;;;;;14.93;7.57;;;11.00;99.90;;;;;;5052935;28;20040;-72
2023/05/14 00:49:20;;;;;;;18.83;9.23;;;11.00;99.90;;;;;;5054590;28;20606;-71
2023/05/14 00:51:46;;;;;;;15.30;8.48;;;11.00;99.90;;;;;;5067744;28;20040;-72
2023/05/14 00:54:21;;;;;;;15.43;8.02;;;11.00;99.90;;;;;;5059411;28;20055;-71
2023/05/14 00:56:47;;;;;;;15.93;8.60;;;11.00;99.90;;;;;;5057977;28;20017;-72
2023/05/14 00:59:13;;;;;;;15.05;8.85;;;11.00;99.90;;;;;;5061131;28;20043;-71
2023/05/14 01:01:39;;;;;;;16.00;9.13;;;11.00;99.90;;;;;;5058857;28;20049;-71
2023/05/14 01:04:06;;;;;;;14.85;8.32;;;11.00;99.90;;;;;;5064465;28;20032;-71
2023/05/14 01:06:37;;;;;;;16.67;9.10;;;11.00;99.90;;;;;;5055839;28;20035;-72
2023/05/14 01:09:21;;;;;;;17.02;9.38;;;10.90;99.90;;;;;;5057285;28;20024;-71
2023/05/14 01:11:51;;;;;;;17.13;9.25;;;11.00;99.90;;;;;;5062386;28;20033;-72
2023/05/14 01:14:30;;;;;;;19.48;10.00;;;11.00;99.90;;;;;;5053678;28;20508;-72
2023/05/14 01:16:58;;;;;;;18.25;9.38;;;11.00;99.90;;;;;;5055490;28;20035;-71
2023/05/14 01:19:42;;;;;;;15.23;9.05;;;10.90;99.90;;;;;;5052616;28;20025;-71
2023/05/14 01:22:09;;;;;;;18.52;9.43;;;10.90;99.90;;;;;;5065784;28;20036;-71
2023/05/14 01:24:35;;;;;;;16.02;9.45;;;10.80;99.90;;;;;;5061113;28;20037;-72
2023/05/14 01:27:28;;;;;;;17.52;9.57;;;10.70;99.90;;;;;;5062642;28;20104;-72
2023/05/14 01:30:03;;;;;;;16.08;9.00;;;10.70;99.90;;;;;;5054323;28;20036;-72
2023/05/14 01:32:30;;;;;;;16.88;9.07;;;10.70;99.90;;;;;;5059600;28;20028;-72
2023/05/14 01:34:59;;;;;;;19.83;10.15;;;10.70;99.90;;;;;;5061492;28;20033;-72
2023/05/14 01:37:26;;;;;;;17.38;9.70;;;10.70;99.90;;;;;;5064550;28;20144;-72
2023/05/14 01:39:53;;;;;;;21.33;9.52;;;10.70;99.90;;;;;;5061495;28;20036;-72
2023/05/14 01:42:19;;;;;;;16.35;9.70;;;10.70;99.90;;;;;;5058919;28;20128;-72
2023/05/14 01:44:45;;;;;;;14.38;8.60;;;10.60;99.90;;;;;;5063566;28;20108;-71
2023/05/14 01:47:11;;;;;;;19.85;10.57;;;10.70;99.90;;;;;;5055750;28;20025;-71
2023/05/14 01:49:36;;;;;;;18.20;9.45;;;10.70;99.90;;;;;;5060558;28;20020;-72
2023/05/14 01:52:02;;;;;;;17.52;9.65;;;10.70;99.90;;;;;;5060004;28;20028;-72
2023/05/14 01:54:28;;;;;;;18.35;9.90;;;10.70;99.90;;;;;;5061760;28;20058;-72
2023/05/14 01:56:53;;;;;;;17.98;9.23;;;10.70;99.90;;;;;;5063192;28;20039;-71
2023/05/14 01:59:19;;;;;;;17.10;9.18;;;10.70;99.90;;;;;;5062694;28;20086;-72
2023/05/14 02:01:45;;;;;;;17.50;9.52;;;10.70;99.90;;;;;;5061114;28;20052;-72
2023/05/14 02:04:10;;;;;;;18.88;9.93;;;10.70;99.90;;;;;;5059472;28;20064;-72
2023/05/14 02:06:36;;;;;;;20.65;10.32;;;10.60;99.90;;;;;;5065608;28;20024;-72
2023/05/14 02:09:02;;;;;;;19.65;10.05;;;10.50;99.90;;;;;;5061650;28;20493;-71
2023/05/14 02:11:28;;;;;;;17.20;9.63;;;10.50;99.90;;;;;;5063863;28;20036;-72
2023/05/14 02:13:53;;;;;;;18.40;9.93;;;10.40;99.90;;;;;;5058451;28;20039;-72
2023/05/14 02:16:19;;;;;;;21.20;10.02;;;10.40;99.90;;;;;;5066238;28;20074;-72
2023/05/14 02:18:44;;;;;;;19.02;10.27;;;10.40;99.90;;;;;;5058284;28;20044;-72
2023/05/14 02:21:10;;;;;;;19.13;9.98;;;10.40;99.90;;;;;;5068114;28;20512;-72
2023/05/14 02:23:36;;;;;;;20.42;10.25;;;10.40;99.90;;;;;;5057911;28;20050;-72
2023/05/14 02:26:02;;;;;;;19.90;10.75;;;10.50;99.90;;;;;;5060287;28;20033;-72
2023/05/14 02:28:27;;;;;;;20.38;11.00;;;10.40;99.90;;;;;;5069677;28;20032;-72
2023/05/14 02:30:58;;;;;;;20.50;10.18;;;10.40;99.90;;;;;;5068041;28;20036;-72
2023/05/14 02:33:24;;;;;;;20.02;10.27;;;10.30;99.90;;;;;;5063353;28;20028;-71
2023/05/14 02:35:50;;;;;;;16.38;9.63;;;10.30;99.90;;;;;;5060087;28;20050;-72
2023/05/14 02:38:15;;;;;;;20.48;10.02;;;10.30;99.90;;;;;;5063200;28;20028;-71
2023/05/14 02:40:41;;;;;;;20.95;9.95;;;10.30;99.90;;;;;;5063989;28;20380;-71
2023/05/14 02:43:07;;;;;;;19.38;10.45;;;10.30;99.90;;;;;;5068976;28;20051;-72
2023/05/14 02:45:32;;;;;;;18.35;9.70;;;10.40;99.90;;;;;;5064016;28;20056;-71
2023/05/14 02:47:58;;;;;;;20.23;10.77;;;10.30;99.90;;;;;;5060015;28;20532;-72
2023/05/14 02:50:23;;;;;;;21.92;11.50;;;10.30;99.90;;;;;;5067164;28;20040;-71
2023/05/14 02:52:49;;;;;;;21.13;11.13;;;10.20;99.90;;;;;;5064117;28;20373;-71
2023/05/14 02:55:15;;;;;;;21.35;11.00;;;10.20;99.90;;;;;;5057189;28;20056;-72
2023/05/14 02:57:40;;;;;;;19.95;10.52;;;10.20;99.90;;;;;;5070104;28;20028;-71
2023/05/14 03:00:07;;;;;;;17.10;9.73;;;10.20;99.90;;;;;;5062228;28;20051;-71
2023/05/14 03:02:34;;;;;;;19.83;10.77;;;10.10;99.90;;;;;;5060976;28;20408;-72
2023/05/14 03:05:00;;;;;;;21.08;10.68;;;10.20;99.90;;;;;;5063860;28;20039;-71
2023/05/14 03:07:26;;;;;;;20.02;10.07;;;10.20;99.90;;;;;;5066885;28;20032;-71
2023/05/14 03:09:51;;;;;;;18.77;10.48;;;10.20;99.90;;;;;;5061574;28;20036;-71
2023/05/14 03:12:17;;;;;;;20.08;10.02;;;10.30;99.90;;;;;;5058179;28;20028;-71
2023/05/14 03:14:43;;;;;;;20.30;10.98;;;10.30;99.90;;;;;;5060581;28;20423;-71
2023/05/14 03:17:08;;;;;;;22.55;12.05;;;10.40;99.90;;;;;;5059055;28;20038;-71
2023/05/14 03:19:34;;;;;;;21.45;10.88;;;10.40;99.90;;;;;;5057613;28;20033;-71
2023/05/14 03:22:00;;;;;;;23.27;12.07;;;10.40;99.90;;;;;;5062131;28;20456;-71
2023/05/14 03:24:26;;;;;;;23.92;12.23;;;10.40;99.90;;;;;;5065480;28;20024;-71
2023/05/14 03:26:52;;;;;;;20.92;11.70;;;10.50;99.90;;;;;;5054346;28;20028;-71
2023/05/14 03:29:17;;;;;;;20.70;11.20;;;10.40;99.90;;;;;;5055623;28;20064;-71
2023/05/14 03:31:43;;;;;;;23.35;11.38;;;10.50;99.90;;;;;;5066596;28;20059;-71
2023/05/14 03:34:09;;;;;;;22.48;12.00;;;10.50;99.90;;;;;;5057607;28;20068;-72
2023/05/14 03:36:36;;;;;;;23.13;11.80;;;10.50;99.90;;;;;;5064773;28;20033;-71
2023/05/14 03:39:02;;;;;;;21.80;11.98;;;10.50;99.90;;;;;;5058611;28;20120;-71
2023/05/14 03:41:28;;;;;;;20.00;11.88;;;10.50;99.90;;;;;;5061921;28;20107;-72
2023/05/14 03:43:53;;;;;;;23.02;12.20;;;10.40;99.90;;;;;;5059524;28;20044;-73
2023/05/14 03:46:19;;;;;;;23.20;11.35;;;10.40;99.90;;;;;;5054383;28;20032;-72
2023/05/14 03:48:44;;;;;;;23.35;11.90;;;10.40;99.90;;;;;;5059842;28;20039;-71
2023/05/14 03:51:10;;;;;;;24.33;10.95;;;10.40;99.90;;;;;;5058491;28;20100;-71
2023/05/14 03:53:36;;;;;;;20.90;11.18;;;10.50;99.90;;;;;;5056725;28;20086;-72
2023/05/14 03:56:01;;;;;;;25.27;11.90;;;10.50;99.90;;;;;;5066355;28;20060;-71
2023/05/14 03:58:27;;;;;;;21.60;10.98;;;10.50;99.90;;;;;;5060290;28;20090;-71
2023/05/14 04:00:52;;;;;;;21.08;10.93;;;10.50;99.90;;;;;;5057448;28;20064;-71
2023/05/14 04:03:18;;;;;;;21.63;11.13;;;10.50;99.90;;;;;;5054115;28;20082;-71
2023/05/14 04:05:44;;;;;;;19.63;11.02;;;10.50;99.90;;;;;;5053966;28;20384;-71
2023/05/14 04:08:09;;;;;;;22.83;11.02;;;10.40;99.90;;;;;;5064564;28;20127;-71
2023/05/14 04:10:35;;;;;;;23.67;11.30;;;10.40;99.90;;;;;;5063061;28;20102;-71
2023/05/14 04:13:00;;;;;;;20.73;10.40;;;10.40;99.90;;;;;;5062530;28;20366;-71
2023/05/14 04:15:26;;;;;;;19.17;10.18;;;10.40;99.90;;;;;;5057624;28;20025;-71
2023/05/14 04:17:52;;;;;;;20.52;10.50;;;10.30;99.90;;;;;;5067799;28;20040;-71
2023/05/14 04:20:17;;;;;;;19.80;10.60;;;10.30;99.90;;;;;;5063738;28;20047;-71
2023/05/14 04:22:43;;;;;;;20.20;11.43;;;10.30;99.90;;;;;;5056850;28;20397;-71
2023/05/14 04:25:09;;;;;;;21.52;11.30;;;10.20;99.90;;;;;;5062732;28;20028;-72
2023/05/14 04:27:34;;;;;;;19.33;10.38;;;10.20;99.90;;;;;;5054002;28;20593;-71
2023/05/14 04:30:00;;;;;;;22.52;10.77;;;10.20;99.90;;;;;;5056064;28;20039;-71
2023/05/14 04:32:26;;;;;;;21.48;11.13;;;10.10;99.90;;;;;;5066108;28;20032;-71
2023/05/14 04:34:51;;;;;;;21.02;11.05;;;10.20;99.90;;;;;;5055101;28;20545;-72
2023/05/14 04:37:17;;;;;;;22.50;11.60;;;10.20;99.90;;;;;;5063162;28;20052;-72
2023/05/14 04:39:43;;;;;;;21.98;11.18;;;10.30;99.90;;;;;;5054187;28;20051;-72
2023/05/14 04:42:08;;;;;;;21.90;10.85;;;10.30;99.90;;;;;;5053640;28;20075;-72
2023/05/14 04:44:35;;;;;;;19.85;11.18;;;10.40;99.90;;;;;;5060358;28;20096;-72
2023/05/14 04:47:01;;;;;;;19.05;10.77;;;10.40;99.90;;;;;;5055251;28;20031;-72
2023/05/14 04:49:27;;;;;;;22.27;11.00;;;10.40;99.90;;;;;;5058537;28;20036;-72
2023/05/14 04:51:53;;;;;;;22.13;11.30;;;10.40;99.90;;;;;;5062426;28;20068;-72
2023/05/14 04:54:19;;;;;;;20.88;11.02;;;10.40;99.90;;;;;;5051183;28;20052;-72
2023/05/14 04:56:46;;;;;;;28.40;12.13;;;10.40;99.90;;;;;;5054171;28;20024;-72
2023/05/14 04:59:12;;;;;;;22.77;10.75;;;10.40;99.90;;;;;;5058954;28;20032;-72
2023/05/14 05:01:37;;;;;;;22.17;11.02;;;10.50;99.90;;;;;;5061884;28;20276;-72
2023/05/14 05:04:03;;;;;;;19.33;10.70;;;10.50;99.90;;;;;;5052962;28;20461;-72
2023/05/14 05:06:29;;;;;;;19.38;11.18;;;10.60;99.90;;;;;;5059276;28;20131;-72
2023/05/14 05:08:55;;;;;;;20.23;11.85;;;10.50;99.90;;;;;;5055182;28;20028;-72
2023/05/14 05:11:20;;;;;;;21.15;11.35;;;10.50;99.90;;;;;;5045782;28;20037;-72
2023/05/14 05:13:46;;;;;;;19.90;10.93;;;10.50;99.90;;;;;;5050120;28;20032;-72
2023/05/14 05:16:11;;;;;;;20.52;11.30;;;10.50;99.90;;;;;;5061479;28;20029;-72
2023/05/14 05:18:37;;;;;;;23.50;11.77;;;10.50;99.90;;;;;;5060390;28;20496;-72
2023/05/14 05:21:03;;;;;;;22.35;11.40;;;10.50;99.90;;;;;;5058991;28;20029;-72
2023/05/14 05:23:29;;;;;;;19.73;10.63;;;10.60;99.90;;;;;;5054063;28;20027;-72
2023/05/14 05:25:54;;;;;;;22.88;11.65;;;10.70;99.90;;;;;;5061135;28;20048;-72
2023/05/14 05:28:20;;;;;;;20.55;11.02;;;10.70;99.90;;;;;;5060844;28;20056;-72
2023/05/14 05:30:46;;;;;;;21.95;11.15;;;10.80;99.90;;;;;;5052723;28;20693;-72
2023/05/14 05:33:12;;;;;;;22.23;11.60;;;10.80;99.90;;;;;;5057275;28;20039;-72
2023/05/14 05:35:37;;;;;;;23.25;11.98;;;10.80;99.90;;;;;;5053703;28;20017;-72
2023/05/14 05:38:03;;;;;;;26.23;12.13;;;10.90;99.90;;;;;;5051945;28;20095;-72
2023/05/14 05:40:29;;;;;;;20.83;10.63;;;10.90;99.90;;;;;;5056647;28;20028;-72
2023/05/14 05:42:55;;;;;;;22.60;11.60;;;10.90;99.90;;;;;;5054023;28;20135;-72
2023/05/14 05:45:20;;;;;;;22.58;11.35;;;10.80;99.90;;;;;;5057310;28;20029;-72
2023/05/14 05:47:46;;;;;;;21.42;11.48;;;10.90;99.90;;;;;;5044735;28;20025;-72
2023/05/14 05:50:12;;;;;;;26.73;11.88;;;11.00;99.90;;;;;;5048217;28;20041;-72
2023/05/14 05:52:38;;;;;;;22.25;12.23;;;11.10;99.90;;;;;;5056082;28;20651;-72
2023/05/14 05:55:04;;;;;;;24.60;13.13;;;11.20;99.90;;;;;;5061867;28;20476;-73
2023/05/14 05:57:30;;;;;;;21.48;11.80;;;11.30;99.90;;;;;;5056903;28;20024;-72
2023/05/14 05:59:55;;;;;;;22.23;12.25;;;11.30;99.90;;;;;;5058242;28;20372;-72
2023/05/14 06:02:21;;;;;;;21.13;11.75;;;11.30;99.90;;;;;;5049395;28;20135;-72
2023/05/14 06:04:47;;;;;;;22.10;12.27;;;11.30;99.90;;;;;;5058099;28;20033;-72
2023/05/14 06:07:13;;;;;;;22.63;12.13;;;11.30;99.90;;;;;;5065370;28;20037;-72
2023/05/14 06:09:38;;;;;;;23.67;11.68;;;11.20;99.90;;;;;;5060768;28;20093;-72
2023/05/14 06:12:04;;;;;;;20.35;11.48;;;11.20;99.90;;;;;;5054319;28;20710;-72
2023/05/14 06:14:30;;;;;;;23.13;12.55;;;11.20;99.90;;;;;;5057594;28;20522;-72
2023/05/14 06:16:56;;;;;;;20.80;11.70;;;11.30;99.90;;;;;;5058154;28;20025;-72
2023/05/14 06:19:22;;;;;;;22.90;11.70;;;11.30;99.90;;;;;;5060057;28;20033;-72
2023/05/14 06:21:47;;;;;;;21.75;10.90;;;11.30;99.90;;;;;;5059660;28;20036;-71
2023/05/14 06:24:13;;;;;;;20.60;10.73;;;11.50;99.90;;;;;;5062927;28;20474;-71
2023/05/14 06:26:38;;;;;;;21.80;11.85;;;11.60;99.90;;;;;;5058824;28;20559;-72
2023/05/14 06:29:04;;;;;;;20.00;10.68;;;11.70;99.90;;;;;;5050863;28;20472;-71
2023/05/14 06:31:30;;;;;;;21.48;11.45;;;11.80;99.90;;;;;;5050932;28;20582;-71
2023/05/14 06:33:55;;;;;;;19.77;11.43;;;11.90;99.90;;;;;;5063838;28;20029;-73
2023/05/14 06:36:21;;;;;;;25.80;11.32;;;11.90;99.90;;;;;;5065159;28;20040;-73
2023/05/14 06:38:46;;;;;;;24.45;10.60;;;12.10;99.90;;;;;;5059432;28;20515;-73
2023/05/14 06:41:12;;;;;;;22.17;11.77;;;12.10;99.90;;;;;;5068401;28;20031;-73
2023/05/14 06:43:38;;;;;;;21.67;11.35;;;12.10;99.90;;;;;;5058020;28;20186;-70
2023/05/14 06:46:03;;;;;;;21.80;11.88;;;12.00;99.90;;;;;;5061499;28;20464;-70
2023/05/14 06:48:29;;;;;;;21.63;11.30;;;12.00;99.90;;;;;;5065890;28;20113;-70
2023/05/14 06:50:55;;;;;;;20.58;11.13;;;12.20;99.90;;;;;;5063037;28;20037;-70
2023/05/14 06:53:21;;;;;;;26.83;11.68;;;12.20;99.90;;;;;;5062848;28;20036;-70
2023/05/14 06:55:47;;;;;;;23.38;12.07;;;12.30;99.90;;;;;;5059102;28;20024;-70
2023/05/14 06:58:13;;;;;;;22.17;11.90;;;12.30;99.90;;;;;;5063660;28;20021;-70
2023/05/14 07:00:39;;;;;;;21.17;11.63;;;12.30;99.90;;;;;;5058519;28;20717;-70
2023/05/14 07:03:04;;;;;;;25.83;12.60;;;12.40;99.90;;;;;;5060740;28;20041;-70
2023/05/14 07:05:30;;;;;;;23.15;11.48;;;12.40;99.90;;;;;;5061014;28;20028;-71
2023/05/14 07:07:56;;;;;;;22.83;11.73;;;12.60;99.90;;;;;;5062642;28;20029;-70
2023/05/14 07:10:22;;;;;;;27.77;11.85;;;12.60;99.90;;;;;;5058423;28;20385;-70
2023/05/14 07:12:48;;;;;;;20.92;11.30;;;12.70;99.90;;;;;;5060923;28;20040;-71
2023/05/14 07:15:14;;;;;;;19.27;11.25;;;12.90;99.90;;;;;;5068457;28;20039;-70
2023/05/14 07:17:40;;;;;;;22.17;12.63;;;12.90;99.90;;;;;;5058151;28;20078;-71
2023/05/14 07:20:06;;;;;;;21.73;11.70;;;13.00;99.90;;;;;;5047143;28;20416;-71
2023/05/14 07:22:32;;;;;;;23.35;11.52;;;13.20;99.90;;;;;;5064218;28;20083;-70
2023/05/14 07:24:57;;;;;;;20.77;10.60;;;13.20;99.90;;;;;;5064620;28;20048;-70
2023/05/14 07:27:23;;;;;;;23.58;11.02;;;13.40;99.90;;;;;;5052830;28;21548;-70
2023/05/14 07:29:49;;;;;;;21.60;10.52;;;13.50;99.90;;;;;;5055724;28;20457;-68
2023/05/14 07:32:15;;;;;;;20.55;11.55;;;13.40;99.90;;;;;;5065381;28;20043;-72
2023/05/14 07:34:41;;;;;;;19.75;11.40;;;13.40;99.90;;;;;;5063922;28;20072;-72
2023/05/14 07:37:06;;;;;;;18.48;10.63;;;13.40;99.90;;;;;;5060360;28;20036;-72
2023/05/14 07:39:32;;;;;;;17.77;10.07;;;13.60;99.90;;;;;;5058452;28;20493;-72
2023/05/14 07:41:59;;;;;;;19.92;9.80;;;13.70;99.90;;;;;;5056930;28;20048;-72
2023/05/14 07:44:25;;;;;;;16.45;9.60;;;13.90;99.90;;;;;;5060214;28;20028;-72
2023/05/14 07:46:51;;;;;;;18.27;10.73;;;14.00;99.90;;;;;;5056939;28;20029;-70
2023/05/14 07:49:17;;;;;;;19.27;10.57;;;14.10;99.90;;;;;;5057180;28;20021;-72
2023/05/14 07:51:42;;;;;;;18.88;9.90;;;14.00;99.90;;;;;;5052057;28;20043;-73
2023/05/14 07:54:08;;;;;;;20.73;10.13;;;14.10;99.90;;;;;;5061751;28;20424;-72
2023/05/14 07:56:33;;;;;;;17.02;9.63;;;14.30;99.90;;;;;;5055266;28;20062;-72
2023/05/14 07:58:59;;;;;;;15.20;9.68;;;14.50;99.90;;;;;;5065481;28;20536;-73
2023/05/14 08:01:25;;;;;;;19.20;9.90;;;14.80;99.90;;;;;;5058009;28;20056;-72
2023/05/14 08:03:50;;;;;;;15.98;9.00;;;14.80;99.90;;;;;;5055243;28;20044;-72
2023/05/14 08:06:16;;;;;;;15.57;9.25;;;14.70;99.90;;;;;;5067671;28;20525;-72
2023/05/14 08:08:42;;;;;;;15.50;8.98;;;14.50;99.90;;;;;;5060238;28;20028;-72
2023/05/14 08:11:08;;;;;;;17.58;9.23;;;14.80;99.90;;;;;;5067238;28;20039;-72
2023/05/14 08:13:33;;;;;;;14.88;9.38;;;14.90;99.90;;;;;;5061390;28;20067;-72
2023/05/14 08:15:59;;;;;;;16.33;9.80;;;15.00;99.90;;;;;;5059267;28;20045;-72
2023/05/14 08:18:25;;;;;;;17.75;9.23;;;15.10;99.90;;;;;;5065618;28;20425;-72
2023/05/14 08:20:50;;;;;;;15.60;9.98;;;15.10;99.90;;;;;;5057714;28;20128;-72
2023/05/14 08:23:16;;;;;;;18.50;10.40;;;15.00;99.90;;;;;;5057873;28;20118;-73
2023/05/14 08:25:42;;;;;;;16.77;10.30;;;14.90;99.90;;;;;;5068106;28;20115;-72
2023/05/14 08:28:07;;;;;;;16.20;10.15;;;14.80;99.90;;;;;;5060853;28;20029;-73
2023/05/14 08:30:33;;;;;;;13.43;9.00;;;14.80;99.90;;;;;;5057722;28;20029;-72
2023/05/14 08:32:59;;;;;;;12.95;8.90;;;14.90;99.90;;;;;;5061408;28;20126;-72
2023/05/14 08:35:24;;;;;;;15.93;9.55;;;15.10;99.90;;;;;;5055951;28;20432;-73
2023/05/14 08:37:51;;;;;;;15.05;9.75;;;15.30;99.90;;;;;;5060961;28;20605;-72
2023/05/14 08:40:17;;;;;;;15.40;9.02;;;14.80;99.90;;;;;;5066587;28;20057;-72
2023/05/14 08:42:43;;;;;;;15.95;8.98;;;14.60;99.90;;;;;;5061212;28;20087;-72
2023/05/14 08:45:09;;;;;;;14.95;8.77;;;14.50;99.90;;;;;;5068016;28;20475;-72
2023/05/14 08:47:36;;;;;;;13.75;8.55;;;14.60;99.90;;;;;;5056912;28;20033;-72
2023/05/14 08:50:03;;;;;;;15.63;8.45;;;14.70;99.90;;;;;;5063527;28;20485;-72
2023/05/14 08:52:30;;;;;;;13.93;7.68;;;14.90;99.90;;;;;;5058399;28;20037;-72
2023/05/14 08:54:58;;;;;;;14.75;7.68;;;15.10;99.90;;;;;;5057742;28;20079;-72
2023/05/14 08:57:25;;;;;;;13.00;7.07;;;14.90;99.90;;;;;;5066023;28;20506;-72
2023/05/14 08:59:51;;;;;;;14.70;7.40;;;14.70;99.90;;;;;;5058081;28;20631;-73
2023/05/14 09:02:22;;;;;;;11.45;7.00;;;14.60;99.90;;;;;;5058622;28;20053;-73
2023/05/14 09:04:59;;;;;;;11.05;7.13;;;14.70;99.90;;;;;;5067182;28;20032;-72
2023/05/14 09:07:25;;;;;;;13.98;6.82;;;14.70;99.90;;;;;;5060009;28;20037;-72
2023/05/14 09:09:52;;;;;;;11.80;7.00;;;14.70;99.90;;;;;;5058534;28;20111;-72
2023/05/14 09:12:18;;;;;;;12.02;6.97;;;14.80;99.90;;;;;;5060058;28;20036;-72
2023/05/14 09:14:44;;;;;;;12.15;7.45;;;14.80;99.90;;;;;;5059282;28;20068;-73
2023/05/14 09:17:11;;;;;;;13.77;7.47;;;14.90;99.90;;;;;;5068084;28;20063;-72
2023/05/14 09:19:40;;;;;;;12.10;7.40;;;15.10;99.90;;;;;;5058446;28;20044;-73
2023/05/14 09:22:15;;;;;;;12.77;7.38;;;15.20;99.90;;;;;;5068098;28;20477;-73
2023/05/14 09:24:40;;;;;;;11.00;6.68;;;15.10;99.90;;;;;;5064241;28;20071;-73
2023/05/14 09:27:08;;;;;;;10.63;6.38;;;15.10;99.90;;;;;;5061062;28;20584;-72
2023/05/14 09:29:34;;;;;;;11.18;6.93;;;15.10;99.90;;;;;;5063888;28;20457;-72
2023/05/14 09:32:04;;;;;;;11.65;6.72;;;15.40;99.90;;;;;;5061137;28;20053;-72
2023/05/14 09:34:36;;;;;;;10.45;6.28;;;15.30;99.90;;;;;;5059899;28;20024;-73
2023/05/14 09:37:04;;;;;;;12.38;7.13;;;15.30;99.90;;;;;;5059760;28;20036;-72
2023/05/14 09:39:32;;;;;;;11.15;7.18;;;15.30;99.90;;;;;;5050411;28;20493;-72
2023/05/14 09:41:57;;;;;;;12.07;7.13;;;15.40;99.90;;;;;;5067331;28;20115;-72
2023/05/14 09:44:24;;;;;;;10.68;6.90;;;15.60;99.90;;;;;;5059642;28;20100;-72
2023/05/14 09:46:51;;;;;;;13.52;7.25;;;15.80;99.90;;;;;;5063367;28;20020;-72
2023/05/14 09:49:17;;;;;;;10.23;6.88;;;15.80;99.90;;;;;;5054971;28;20025;-73
2023/05/14 09:51:43;;;;;;;11.15;6.78;;;16.00;99.90;;;;;;5065306;28;20060;-72
2023/05/14 09:54:08;;;;;;;11.10;6.50;;;16.20;99.90;;;;;;5054586;28;20057;-73
2023/05/14 09:56:35;;;;;;;10.63;6.82;;;16.20;99.90;;;;;;5055842;28;20025;-73
2023/05/14 09:59:02;;;;;;;12.55;6.82;;;15.90;99.90;;;;;;5050635;28;20482;-73
2023/05/14 10:01:28;;;;;;;11.75;6.45;;;15.80;99.90;;;;;;5061426;28;20045;-73
2023/05/14 10:03:55;;;;;;;11.93;6.82;;;15.90;99.90;;;;;;5056706;28;20060;-73
2023/05/14 10:06:24;;;;;;;11.52;7.05;;;16.40;99.90;;;;;;5054380;28;20369;-72
2023/05/14 10:08:56;;;;;;;10.07;6.18;;;16.70;99.90;;;;;;5057858;28;20037;-72
2023/05/14 10:11:25;;;;;;;9.32;5.97;;;16.90;99.90;;;;;;5049808;28;20024;-73
2023/05/14 10:13:56;;;;;;;16.20;9.70;;;16.70;99.90;;;;;;5066581;28;20064;-75
2023/05/14 10:16:32;;;;;;;13.15;7.93;;;16.70;99.90;;;;;;5059405;28;20107;-75
2023/05/14 10:19:04;;;;;;;9.00;5.65;;;16.60;99.90;;;;;;5046466;28;20029;-75
2023/05/14 10:21:34;;;;;;;10.73;5.88;;;16.30;99.90;;;;;;5053580;28;20071;-75
2023/05/14 10:24:01;;;;;;;9.38;5.68;;;16.50;99.90;;;;;;5066135;28;20029;-73
2023/05/14 10:26:27;;;;;;;11.35;5.28;;;16.70;99.90;;;;;;5059418;28;20025;-72
2023/05/14 10:28:54;;;;;;;9.00;5.40;;;16.90;99.90;;;;;;5063148;28;20487;-72
2023/05/14 10:31:22;;;;;;;8.00;4.75;;;16.90;99.90;;;;;;5059893;28;20036;-73
2023/05/14 10:33:49;;;;;;;8.80;4.80;;;16.90;99.90;;;;;;5056042;28;20107;-72
2023/05/14 10:36:17;;;;;;;8.20;5.05;;;16.90;99.90;;;;;;5065536;28;20082;-72
2023/05/14 10:38:43;;;;;;;11.77;5.10;;;17.10;99.90;;;;;;5056143;28;20029;-73
2023/05/14 10:41:11;;;;;;;8.80;5.43;;;17.20;99.90;;;;;;5067224;28;20464;-73
2023/05/14 10:43:39;;;;;;;9.73;4.97;;;17.20;99.90;;;;;;5064786;28;20032;-73
2023/05/14 10:46:06;;;;;;;7.07;4.75;;;17.20;99.90;;;;;;5070167;28;20035;-72
2023/05/14 10:48:32;;;;;;;8.25;5.00;;;17.10;99.90;;;;;;5062816;28;20031;-73
2023/05/14 10:50:59;;;;;;;10.02;5.00;;;16.90;99.90;;;;;;5058669;28;20613;-73
2023/05/14 10:53:33;;;;;;;14.20;5.57;;;16.80;99.90;;;;;;5062442;28;20064;-73
2023/05/14 10:56:13;;;;;;;9.40;5.20;;;16.80;99.90;;;;;;5060104;28;20051;-73
2023/05/14 10:58:43;;;;;;;9.77;5.35;;;16.80;99.90;;;;;;5064335;28;20028;-73
2023/05/14 11:01:11;;;;;;;8.75;5.20;;;16.90;99.90;;;;;;5056296;28;20060;-73
2023/05/14 11:03:45;;;;;;;9.73;4.88;;;16.80;99.90;;;;;;5069976;28;20075;-73
2023/05/14 11:06:13;;;;;;;6.75;4.47;;;17.10;99.90;;;;;;5061328;28;20643;-73
2023/05/14 11:08:40;;;;;;;7.10;4.15;;;17.10;99.90;;;;;;5063270;28;20037;-73
2023/05/14 11:11:07;;;;;;;6.80;4.43;;;17.20;99.90;;;;;;5060753;28;20031;-73
2023/05/14 11:13:33;;;;;;;7.50;4.38;;;17.00;99.90;;;;;;5062418;28;20036;-73
2023/05/14 11:16:01;;;;;;;8.18;4.45;;;16.90;99.90;;;;;;5068367;28;20637;-73
2023/05/14 11:18:32;;;;;;;8.25;4.15;;;16.80;99.90;;;;;;5063468;28;20020;-73
2023/05/14 11:20:59;;;;;;;7.72;4.68;;;16.90;99.90;;;;;;5058284;28;20112;-73
2023/05/14 11:23:25;;;;;;;7.78;4.53;;;17.10;99.90;;;;;;5070095;28;20039;-73
2023/05/14 11:25:55;;;;;;;7.65;5.10;;;17.20;99.90;;;;;;5059494;28;20040;-73
2023/05/14 11:28:22;;;;;;;7.20;5.23;;;17.20;99.90;;;;;;5069455;28;20111;-73
2023/05/14 11:30:51;;;;;;;7.30;4.70;;;17.10;99.90;;;;;;5067283;28;20025;-73
2023/05/14 11:33:17;;;;;;;17.55;6.63;;;17.40;99.90;;;;;;5057751;28;20036;-73
2023/05/14 11:35:44;;;;;;;6.22;4.43;;;18.00;99.90;;;;;;5049683;28;20427;-73
2023/05/14 11:38:20;;;;;;;9.73;4.32;;;18.40;99.90;;;;;;5064519;28;20099;-73
2023/05/14 11:40:56;;;;;;;7.43;4.22;;;18.40;99.90;;;;;;5055640;28;20384;-73
2023/05/14 11:43:27;;;;;;;8.52;4.47;;;18.20;99.90;;;;;;5058513;28;20064;-73
2023/05/14 11:45:54;;;;;;;7.35;4.20;;;18.30;99.90;;;;;;5064354;28;20036;-73
2023/05/14 11:48:20;;;;;;;6.82;3.97;;;18.30;99.90;;;;;;5068242;28;20103;-73
2023/05/14 11:50:50;;;;;;;6.40;4.28;;;18.60;99.90;;;;;;5060399;28;20067;-73
2023/05/14 11:53:29;;;;;;;6.40;4.43;;;18.90;99.90;;;;;;5065023;28;20032;-73
2023/05/14 11:55:58;;;;;;;8.32;5.10;;;19.50;99.90;;;;;;5049167;28;20087;-73
2023/05/14 11:58:24;;;;;;;7.07;4.47;;;19.40;99.90;;;;;;5068712;28;20058;-73
2023/05/14 12:00:51;;;;;;;7.47;4.43;;;18.90;99.90;;;;;;5068259;28;20053;-73
2023/05/14 12:03:28;;;;;;;6.60;4.22;;;18.60;99.90;;;;;;5067576;28;20043;-73
2023/05/14 12:05:58;;;;;;;12.50;4.88;;;18.40;99.90;;;;;;5068494;28;20043;-73
2023/05/14 12:08:27;;;;;;;8.15;5.53;;;18.50;99.90;;;;;;5068618;28;21702;-72
2023/05/14 12:10:53;;;;;;;7.35;4.88;;;18.40;99.90;;;;;;5057736;28;20032;-73
2023/05/14 12:13:19;;;;;;;8.43;4.53;;;18.20;99.90;;;;;;5065978;28;20032;-73
2023/05/14 12:15:55;;;;;;;9.77;5.10;;;18.20;99.90;;;;;;5059587;28;20526;-73
2023/05/14 12:18:21;;;;;;;9.85;5.93;;;18.10;99.90;;;;;;5060561;28;20477;-73
2023/05/14 12:20:52;;;;;;;8.88;5.93;;;18.00;99.90;;;;;;5060057;28;20025;-73
2023/05/14 12:23:31;;;;;;;13.70;6.95;;;17.90;99.90;;;;;;5060723;28;20040;-73
2023/05/14 12:26:05;;;;;;;7.57;5.38;;;17.70;99.90;;;;;;5057670;28;20064;-73
2023/05/14 12:28:31;;;;;;;9.10;5.18;;;17.60;99.90;;;;;;5057851;28;20037;-72
2023/05/14 12:30:57;;;;;;;7.38;5.07;;;17.60;99.90;;;;;;5053380;28;20028;-73